createdAt,value
2022-08-14T00:01:10.033Z,5.50
2022-08-14T00:03:37.077Z,5.65
2022-08-14T00:06:25.755Z,4.63
2022-08-14T00:08:50.655Z,5.60
2022-08-14T00:11:17.683Z,4.72
2022-08-14T00:13:44.194Z,5.00
2022-08-14T00:16:41.054Z,4.70
2022-08-14T00:19:19.605Z,4.90
2022-08-14T00:21:51.805Z,5.10
2022-08-14T00:24:23.305Z,5.10
2022-08-14T00:26:55.246Z,4.55
2022-08-14T00:29:21.803Z,5.40
2022-08-14T00:31:54.532Z,5.13
2022-08-14T00:34:36.895Z,4.55
2022-08-14T00:37:05.645Z,5.57
2022-08-14T00:39:32.401Z,5.07
2022-08-14T00:41:59.061Z,5.70
2022-08-14T00:44:32.424Z,5.22
2022-08-14T00:47:00.941Z,5.15
2022-08-14T00:49:30.125Z,6.03
2022-08-14T00:51:56.883Z,5.10
2022-08-14T00:54:24.650Z,5.20
2022-08-14T00:56:55.370Z,4.90
2022-08-14T00:59:23.599Z,5.32
2022-08-14T01:01:51.387Z,4.90
2022-08-14T01:04:51.511Z,5.07
2022-08-14T01:07:08.244Z,5.18
2022-08-14T01:09:39.211Z,5.28
2022-08-14T01:12:06.523Z,4.75
2022-08-14T01:14:34.786Z,4.88
2022-08-14T01:17:02.332Z,5.30
2022-08-14T01:19:48.018Z,5.00
2022-08-14T01:22:18.889Z,5.22
2022-08-14T01:24:46.889Z,5.00
2022-08-14T01:27:18.656Z,10.05
2022-08-14T01:30:00.608Z,5.03
2022-08-14T01:32:31.523Z,5.47
2022-08-14T01:35:19.193Z,5.88
2022-08-14T01:37:57.115Z,5.85
2022-08-14T01:40:36.689Z,4.85
2022-08-14T01:43:15.770Z,5.03
2022-08-14T01:45:48.739Z,5.60
2022-08-14T01:48:16.120Z,5.75
2022-08-14T01:50:47.487Z,6.00
2022-08-14T01:53:13.966Z,5.27
2022-08-14T01:55:41.329Z,5.75
2022-08-14T01:58:19.386Z,5.63
2022-08-14T02:00:57.833Z,5.43
2022-08-14T02:03:31.311Z,5.18
2022-08-14T02:06:04.034Z,5.47
2022-08-14T02:08:53.338Z,5.93
2022-08-14T02:11:22.532Z,5.50
2022-08-14T02:14:07.352Z,5.35
2022-08-14T02:16:39.261Z,5.30
2022-08-14T02:19:08.872Z,5.20
2022-08-14T02:21:43.180Z,6.25
2022-08-14T02:24:38.758Z,5.63
2022-08-14T02:28:26.072Z,5.53
2022-08-14T02:29:59.091Z,5.90
2022-08-14T02:32:30.393Z,5.25
2022-08-14T02:35:18.770Z,5.68
2022-08-14T02:37:48.279Z,5.50
2022-08-14T02:40:15.702Z,6.10
2022-08-14T02:42:55.287Z,5.40
2022-08-14T02:45:25.086Z,5.57
2022-08-14T02:48:10.533Z,5.50
2022-08-14T02:50:54.293Z,5.25
2022-08-14T02:53:20.703Z,5.73
2022-08-14T02:55:47.263Z,5.53
2022-08-14T02:58:30.666Z,5.73
2022-08-14T03:00:58.296Z,5.35
2022-08-14T03:03:25.335Z,5.40
2022-08-14T03:05:52.690Z,5.78
2022-08-14T03:08:21.039Z,5.35
2022-08-14T03:10:49.109Z,5.43
2022-08-14T03:13:19.293Z,5.80
2022-08-14T03:15:58.083Z,5.70
2022-08-14T03:18:30.615Z,6.05
2022-08-14T03:20:57.866Z,5.30
2022-08-14T03:23:24.937Z,5.40
2022-08-14T03:25:52.240Z,6.55
2022-08-14T03:28:33.378Z,4.88
2022-08-14T03:31:00.724Z,5.60
2022-08-14T03:33:37.870Z,5.68
2022-08-14T03:37:52.216Z,5.68
2022-08-14T03:39:10.471Z,5.35
2022-08-14T03:41:45.160Z,5.57
2022-08-14T03:45:25.186Z,5.38
2022-08-14T03:46:58.075Z,5.85
2022-08-14T03:49:28.526Z,5.85
2022-08-14T03:51:55.949Z,8.23
2022-08-14T03:54:24.586Z,5.60
2022-08-14T03:56:51.147Z,5.75
2022-08-14T03:59:19.464Z,5.75
2022-08-14T04:01:57.959Z,5.70
2022-08-14T04:04:28.525Z,5.82
2022-08-14T04:06:58.789Z,5.53
2022-08-14T04:09:26.644Z,6.35
2022-08-14T04:11:53.807Z,5.57
2022-08-14T04:14:20.323Z,5.90
2022-08-14T04:16:47.407Z,5.97
2022-08-14T04:19:16.438Z,6.75
2022-08-14T04:22:02.905Z,5.40
2022-08-14T04:24:29.940Z,5.38
2022-08-14T04:26:58.295Z,5.13
2022-08-14T04:29:24.783Z,5.55
2022-08-14T04:32:58.270Z,5.50
2022-08-14T04:34:42.035Z,6.20
2022-08-14T04:37:27.708Z,5.70
2022-08-14T04:40:15.128Z,5.82
2022-08-14T04:43:00.387Z,5.73
2022-08-14T04:45:32.809Z,5.50
2022-08-14T04:48:38.760Z,6.18
2022-08-14T04:51:01.764Z,6.47
2022-08-14T04:53:35.659Z,5.93
2022-08-14T04:56:03.495Z,5.97
2022-08-14T04:58:34.119Z,5.68
2022-08-14T05:01:01.852Z,6.00
2022-08-14T05:03:30.093Z,5.80
2022-08-14T05:05:58.250Z,6.00
2022-08-14T05:08:32.382Z,6.70
2022-08-14T05:11:13.418Z,6.07
2022-08-14T05:14:06.799Z,6.38
2022-08-14T05:16:29.371Z,6.47
2022-08-14T05:19:24.700Z,7.13
2022-08-14T05:21:58.223Z,6.18
2022-08-14T05:24:27.457Z,5.68
2022-08-14T05:26:54.235Z,5.25
2022-08-14T05:29:21.764Z,6.00
2022-08-14T05:31:48.837Z,5.38
2022-08-14T05:34:17.069Z,5.97
2022-08-14T05:36:50.528Z,5.40
2022-08-14T05:39:25.433Z,5.50
2022-08-14T05:41:53.375Z,5.95
2022-08-14T05:44:20.806Z,5.65
2022-08-14T05:46:47.320Z,5.33
2022-08-14T05:49:14.382Z,7.47
2022-08-14T05:51:41.250Z,7.18
2022-08-14T05:54:11.348Z,5.28
2022-08-14T05:56:40.637Z,6.53
2022-08-14T05:59:07.463Z,6.57
2022-08-14T06:01:34.254Z,9.93
2022-08-14T06:04:01.904Z,5.55
2022-08-14T06:06:36.444Z,6.20
2022-08-14T06:09:05.099Z,5.70
2022-08-14T06:11:31.686Z,5.20
2022-08-14T06:13:59.003Z,5.32
2022-08-14T06:16:25.951Z,5.53
2022-08-14T06:18:53.305Z,5.75
2022-08-14T06:23:48.782Z,6.97
2022-08-14T06:26:15.783Z,5.57
2022-08-14T06:28:46.793Z,5.80
2022-08-14T06:31:13.222Z,6.20
2022-08-14T06:35:01.308Z,5.85
2022-08-14T06:36:27.021Z,6.32
2022-08-14T06:38:53.587Z,9.35
2022-08-14T06:41:56.688Z,6.15
2022-08-14T06:44:09.794Z,6.55
2022-08-14T06:46:37.298Z,6.25
2022-08-14T06:49:04.312Z,6.32
2022-08-14T06:54:11.208Z,5.55
2022-08-14T06:56:38.618Z,5.20
2022-08-14T06:59:05.517Z,6.20
2022-08-14T07:01:51.478Z,5.85
2022-08-14T07:04:41.739Z,5.10
2022-08-14T07:07:08.185Z,6.13
2022-08-14T07:09:43.691Z,5.80
2022-08-14T07:12:54.793Z,5.57
2022-08-14T07:15:01.189Z,5.28
2022-08-14T07:17:28.680Z,6.47
2022-08-14T07:19:58.692Z,6.70
2022-08-14T07:22:25.730Z,5.18
2022-08-14T07:24:59.656Z,4.40
2022-08-14T07:27:26.534Z,4.90
2022-08-14T07:30:02.664Z,5.15
2022-08-14T07:32:34.293Z,4.10
2022-08-14T07:35:00.834Z,3.75
2022-08-14T07:37:27.290Z,4.60
2022-08-14T07:39:53.856Z,3.72
2022-08-14T07:42:22.702Z,4.97
2022-08-14T07:44:50.622Z,3.30
2022-08-14T07:47:17.652Z,3.30
2022-08-14T07:49:50.923Z,3.78
2022-08-14T07:52:30.794Z,2.95
2022-08-14T07:54:57.840Z,4.32
2022-08-14T07:57:25.102Z,4.20
2022-08-14T07:59:51.847Z,5.03
2022-08-14T08:02:20.385Z,3.15
2022-08-14T08:04:50.484Z,3.90
2022-08-14T08:07:21.784Z,3.30
2022-08-14T08:09:53.051Z,4.20
2022-08-14T08:12:21.704Z,3.97
2022-08-14T08:14:55.716Z,2.72
2022-08-14T08:17:34.354Z,4.05
2022-08-14T08:20:01.684Z,2.35
2022-08-14T08:22:28.214Z,2.28
2022-08-14T08:24:59.336Z,4.45
2022-08-14T08:27:27.342Z,2.67
2022-08-14T08:32:20.187Z,2.72
2022-08-14T08:37:13.999Z,3.15
2022-08-14T08:40:01.821Z,2.60
2022-08-14T08:42:31.634Z,4.55
2022-08-14T08:45:05.292Z,2.60
2022-08-14T08:47:41.369Z,3.10
2022-08-14T08:50:23.494Z,3.08
2022-08-14T08:52:58.559Z,2.05
2022-08-14T08:55:26.470Z,3.13
2022-08-14T08:57:54.297Z,2.22
2022-08-14T09:00:25.522Z,1.73
2022-08-14T09:02:54.623Z,1.95
2022-08-14T09:05:23.275Z,1.92
2022-08-14T09:07:49.789Z,1.60
2022-08-14T09:10:23.198Z,2.03
2022-08-14T09:12:51.570Z,2.70
2022-08-14T09:15:18.238Z,1.70
2022-08-14T09:17:46.327Z,1.50
2022-08-14T09:20:26.025Z,1.73
2022-08-14T09:22:56.323Z,3.60
2022-08-14T09:25:58.715Z,3.08
2022-08-14T09:28:09.555Z,3.42
2022-08-14T09:30:38.703Z,1.80
2022-08-14T09:33:35.500Z,1.48
2022-08-14T09:36:34.406Z,1.30
2022-08-14T09:39:02.108Z,3.47
2022-08-14T09:42:20.768Z,4.07
2022-08-14T09:44:46.079Z,2.65
2022-08-14T09:47:16.993Z,1.52
2022-08-14T09:49:52.979Z,1.42
2022-08-14T09:52:32.783Z,3.53
2022-08-14T09:55:01.154Z,1.67
2022-08-14T09:57:31.018Z,1.20
2022-08-14T09:59:58.151Z,1.77
2022-08-14T10:02:31.325Z,1.30
2022-08-14T10:05:01.171Z,1.67
2022-08-14T10:07:35.153Z,3.50
2022-08-14T10:10:03.193Z,1.40
2022-08-14T10:12:50.067Z,1.27
2022-08-14T10:15:20.372Z,1.88
2022-08-14T10:17:49.024Z,1.23
2022-08-14T10:20:40.857Z,3.08
2022-08-14T10:23:16.255Z,1.73
2022-08-14T10:25:50.838Z,2.80
2022-08-14T10:29:03.704Z,1.67
2022-08-14T10:31:15.575Z,1.98
2022-08-14T10:33:42.021Z,1.35
2022-08-14T10:36:08.463Z,4.88
2022-08-14T10:38:42.637Z,1.05
2022-08-14T10:41:17.537Z,2.90
2022-08-14T10:44:04.403Z,1.45
2022-08-14T10:47:37.010Z,1.52
2022-08-14T10:49:28.798Z,2.40
2022-08-14T10:51:55.213Z,1.58
2022-08-14T10:54:35.917Z,2.25
2022-08-14T10:57:12.604Z,0.60
2022-08-14T10:59:58.543Z,0.85
2022-08-14T11:02:45.136Z,1.20
2022-08-14T11:05:18.273Z,2.03
2022-08-14T11:07:55.345Z,4.85
2022-08-14T11:10:26.129Z,0.85
2022-08-14T11:12:57.760Z,0.60
2022-08-14T11:15:27.351Z,1.23
2022-08-14T11:17:54.682Z,0.43
2022-08-14T11:20:24.019Z,2.92
2022-08-14T11:22:58.906Z,1.88
2022-08-14T11:25:43.578Z,0.95
2022-08-14T11:28:14.713Z,0.80
2022-08-14T11:30:50.160Z,0.63
2022-08-14T11:33:24.537Z,2.90
2022-08-14T11:35:51.089Z,0.90
2022-08-14T11:38:19.952Z,1.60
2022-08-14T11:40:47.608Z,0.82
2022-08-14T11:43:14.780Z,1.02
2022-08-14T11:45:45.006Z,1.45
2022-08-14T11:49:01.676Z,1.13
2022-08-14T11:51:23.946Z,0.85
2022-08-14T11:53:55.274Z,1.02
2022-08-14T11:56:25.753Z,0.93
2022-08-14T11:58:56.216Z,0.55
2022-08-14T12:01:28.524Z,1.40
2022-08-14T12:03:59.166Z,0.55
2022-08-14T12:06:39.376Z,1.33
2022-08-14T12:09:08.696Z,1.63
2022-08-14T12:11:44.288Z,0.65
2022-08-14T12:14:31.157Z,1.38
2022-08-14T12:17:09.379Z,0.70
2022-08-14T12:19:56.553Z,2.72
2022-08-14T12:22:37.118Z,2.33
2022-08-14T12:25:10.980Z,1.88
2022-08-14T12:27:52.429Z,3.17
2022-08-14T12:30:35.998Z,0.60
2022-08-14T12:33:08.629Z,1.58
2022-08-14T12:35:39.915Z,1.15
2022-08-14T12:38:06.859Z,0.70
2022-08-14T12:40:33.394Z,6.30
2022-08-14T12:43:05.918Z,2.13
2022-08-14T12:45:34.374Z,1.15
2022-08-14T12:48:01.956Z,1.88
2022-08-14T12:50:51.695Z,1.85
2022-08-14T12:53:18.510Z,0.88
2022-08-14T12:56:18.518Z,2.15
2022-08-14T12:58:47.497Z,1.20
2022-08-14T13:01:23.079Z,1.63
2022-08-14T13:03:51.847Z,0.60
2022-08-14T13:06:19.237Z,1.75
2022-08-14T13:08:53.000Z,2.08
2022-08-14T13:11:19.962Z,1.33
2022-08-14T13:13:51.084Z,1.20
2022-08-14T13:16:20.875Z,0.82
2022-08-14T13:19:04.588Z,1.25
2022-08-14T13:22:05.185Z,0.73
2022-08-14T13:24:24.231Z,0.70
2022-08-14T13:26:56.821Z,0.88
2022-08-14T13:29:24.654Z,1.02
2022-08-14T13:31:55.092Z,1.50
2022-08-14T13:34:22.982Z,2.05
2022-08-14T13:36:59.252Z,1.55
2022-08-14T13:39:35.972Z,0.70
2022-08-14T13:42:13.594Z,0.70
2022-08-14T13:44:42.656Z,0.80
2022-08-14T13:47:09.754Z,0.68
2022-08-14T13:49:37.898Z,1.23
2022-08-14T13:52:48.342Z,2.10
2022-08-14T13:54:57.747Z,0.50
2022-08-14T13:57:30.511Z,0.93
2022-08-14T14:00:00.856Z,0.73
2022-08-14T14:02:33.655Z,1.30
2022-08-14T14:05:01.201Z,2.38
2022-08-14T14:07:32.084Z,0.60
2022-08-14T14:10:05.399Z,2.05
2022-08-14T14:12:41.240Z,0.85
2022-08-14T14:15:09.613Z,1.38
2022-08-14T14:17:36.719Z,1.38
2022-08-14T14:20:07.084Z,1.35
2022-08-14T14:23:02.236Z,3.03
2022-08-14T14:25:25.546Z,1.45
2022-08-14T14:28:14.354Z,1.25
2022-08-14T14:30:52.237Z,6.82
2022-08-14T14:33:44.584Z,1.25
2022-08-14T14:36:07.281Z,2.33
2022-08-14T14:38:40.943Z,2.67
2022-08-14T14:41:08.478Z,0.47
2022-08-14T14:43:36.038Z,0.80
2022-08-14T14:46:09.342Z,0.55
2022-08-14T14:48:44.286Z,1.50
2022-08-14T14:51:14.616Z,1.05
2022-08-14T14:53:43.195Z,1.25
2022-08-14T14:56:49.837Z,2.28
2022-08-14T14:58:59.947Z,1.67
2022-08-14T15:01:27.225Z,1.52
2022-08-14T15:03:54.660Z,1.17
2022-08-14T15:06:21.989Z,0.50
2022-08-14T15:08:59.579Z,1.02
2022-08-14T15:11:30.373Z,1.60
2022-08-14T15:13:58.795Z,2.10
2022-08-14T15:16:26.931Z,1.20
2022-08-14T15:18:53.988Z,1.02
2022-08-14T15:21:20.463Z,3.00
2022-08-14T15:23:48.142Z,0.50
2022-08-14T15:26:24.124Z,1.80
2022-08-14T15:29:06.093Z,1.08
2022-08-14T15:31:35.961Z,1.05
2022-08-14T15:34:44.143Z,1.75
2022-08-14T15:37:00.217Z,1.00
2022-08-14T15:39:29.505Z,1.58
2022-08-14T15:42:01.949Z,1.35
2022-08-14T15:44:34.040Z,0.50
2022-08-14T15:47:01.201Z,1.27
2022-08-14T15:49:34.643Z,1.60
2022-08-14T15:52:03.389Z,0.70
2022-08-14T15:54:31.152Z,0.60
2022-08-14T15:56:58.460Z,0.65
2022-08-14T15:59:25.505Z,0.98
2022-08-14T16:01:55.082Z,1.88
2022-08-14T16:04:22.782Z,1.20
2022-08-14T16:06:55.333Z,1.00
2022-08-14T16:09:22.487Z,0.65
2022-08-14T16:11:53.329Z,1.38
2022-08-14T16:14:20.615Z,0.65
2022-08-14T16:16:50.199Z,0.85
2022-08-14T16:19:19.581Z,0.93
2022-08-14T16:22:01.269Z,1.23
2022-08-14T16:24:33.310Z,1.65
2022-08-14T16:27:01.394Z,2.03
2022-08-14T16:29:30.234Z,1.25
2022-08-14T16:31:57.870Z,0.93
2022-08-14T16:37:16.567Z,1.77
2022-08-14T16:39:43.356Z,0.73
2022-08-14T16:43:02.621Z,0.77
2022-08-14T16:44:58.217Z,0.80
2022-08-14T16:47:25.588Z,1.58
2022-08-14T16:50:05.057Z,0.90
2022-08-14T16:52:44.874Z,2.15
2022-08-14T16:55:19.669Z,0.95
2022-08-14T16:57:47.639Z,1.58
2022-08-14T17:00:28.740Z,2.03
2022-08-14T17:03:08.342Z,1.80
2022-08-14T17:05:40.794Z,1.85
2022-08-14T17:08:42.666Z,2.42
2022-08-14T17:10:59.158Z,1.65
2022-08-14T17:13:59.426Z,1.38
2022-08-14T17:16:24.066Z,1.40
2022-08-14T17:19:00.816Z,1.23
2022-08-14T17:21:32.535Z,3.03
2022-08-14T17:24:00.718Z,2.13
2022-08-14T17:26:37.037Z,2.38
2022-08-14T17:29:08.268Z,2.97
2022-08-14T17:31:58.687Z,0.85
2022-08-14T17:34:22.147Z,0.70
2022-08-14T17:36:53.883Z,1.20
2022-08-14T17:39:21.438Z,1.65
2022-08-14T17:42:03.032Z,1.52
2022-08-14T17:44:34.291Z,1.85
2022-08-14T17:47:12.998Z,2.38
2022-08-14T17:49:46.915Z,2.17
2022-08-14T17:52:17.008Z,1.95
2022-08-14T17:54:52.853Z,1.48
2022-08-14T17:57:29.503Z,1.92
2022-08-14T18:00:02.401Z,1.65
2022-08-14T18:05:00.167Z,1.20
2022-08-14T18:07:59.459Z,1.27
2022-08-14T18:10:51.927Z,2.15
2022-08-14T18:13:02.899Z,1.10
2022-08-14T18:15:37.198Z,2.47
2022-08-14T18:18:06.552Z,2.63
2022-08-14T18:21:42.678Z,2.05
2022-08-14T18:23:24.702Z,2.15
2022-08-14T18:25:52.180Z,1.83
2022-08-14T18:28:48.164Z,2.28
2022-08-14T18:31:21.503Z,1.45
2022-08-14T18:33:53.671Z,1.48
2022-08-14T18:36:48.336Z,4.72
2022-08-14T18:39:27.297Z,2.63
2022-08-14T18:41:55.944Z,3.13
2022-08-14T18:44:40.883Z,1.02
2022-08-14T18:47:16.014Z,1.55
2022-08-14T18:49:58.343Z,1.10
2022-08-14T18:52:34.471Z,0.80
2022-08-14T18:55:16.719Z,1.13
2022-08-14T18:57:58.485Z,1.02
2022-08-14T19:00:51.395Z,1.20
2022-08-14T19:03:18.298Z,1.33
2022-08-14T19:05:49.171Z,1.13
2022-08-14T19:08:18.619Z,3.50
2022-08-14T19:10:49.408Z,1.80
2022-08-14T19:13:44.661Z,0.90
2022-08-14T19:16:16.362Z,1.23
2022-08-14T19:18:53.668Z,2.38
2022-08-14T19:21:30.054Z,0.80
2022-08-14T19:24:29.546Z,1.67
2022-08-14T19:27:16.762Z,1.38
2022-08-14T19:29:47.832Z,1.63
2022-08-14T19:32:33.158Z,2.72
2022-08-14T19:35:16.859Z,3.08
2022-08-14T19:37:46.071Z,2.97
2022-08-14T19:40:19.263Z,3.90
2022-08-14T19:42:47.320Z,1.70
2022-08-14T19:45:15.437Z,1.45
2022-08-14T19:47:41.884Z,3.85
2022-08-14T19:50:30.922Z,1.23
2022-08-14T19:53:11.075Z,0.93
2022-08-14T19:55:45.660Z,0.80
2022-08-14T19:58:12.584Z,2.70
2022-08-14T20:00:52.287Z,1.02
2022-08-14T20:03:24.113Z,0.80
2022-08-14T20:06:01.683Z,1.80
2022-08-14T20:11:02.421Z,1.95
2022-08-14T20:12:02.093Z,1.15
2022-08-14T20:14:20.838Z,0.80
2022-08-14T20:17:01.654Z,0.70
2022-08-14T20:19:37.948Z,1.38
2022-08-14T20:22:37.098Z,2.28
2022-08-14T20:24:55.178Z,0.80
2022-08-14T20:27:33.671Z,1.92
2022-08-14T20:30:28.216Z,1.65
2022-08-14T20:32:55.076Z,1.45
2022-08-14T20:35:35.166Z,1.60
2022-08-14T20:38:30.818Z,1.67
2022-08-14T20:40:56.442Z,0.80
2022-08-14T20:43:45.443Z,1.80
2022-08-14T20:46:12.803Z,1.35
2022-08-14T20:48:52.908Z,3.03
2022-08-14T20:51:24.529Z,1.17
2022-08-14T20:54:02.759Z,1.20
2022-08-14T20:56:33.138Z,3.05
2022-08-14T20:59:11.666Z,1.95
2022-08-14T21:01:51.927Z,0.82
2022-08-14T21:04:24.403Z,0.93
2022-08-14T21:07:25.966Z,0.82
2022-08-14T21:10:06.160Z,1.08
2022-08-14T21:12:35.809Z,3.30
2022-08-14T21:15:04.960Z,2.08
2022-08-14T21:17:37.484Z,1.33
2022-08-14T21:20:26.265Z,3.65
2022-08-14T21:22:51.247Z,4.53
2022-08-14T21:25:20.817Z,2.40
2022-08-14T21:27:56.809Z,1.20
2022-08-14T21:30:51.756Z,2.35
2022-08-14T21:35:44.457Z,2.00
2022-08-14T21:38:18.328Z,1.70
2022-08-14T21:40:48.247Z,2.30
2022-08-14T21:43:18.868Z,4.95
2022-08-14T21:45:56.153Z,1.80
2022-08-14T21:48:29.904Z,1.73
2022-08-14T21:51:01.205Z,2.05
2022-08-14T21:53:30.944Z,1.55
2022-08-14T21:55:57.860Z,2.38
2022-08-14T21:58:52.635Z,1.75
2022-08-14T22:03:46.936Z,2.15
2022-08-14T22:06:21.890Z,3.08
2022-08-14T22:08:56.141Z,2.10
2022-08-14T22:11:23.033Z,1.75
2022-08-14T22:13:51.535Z,1.92
2022-08-14T22:16:59.900Z,1.80
2022-08-14T22:19:10.570Z,2.15
2022-08-14T22:21:39.865Z,2.00
2022-08-14T22:24:11.554Z,2.53
2022-08-14T22:26:43.002Z,2.97
2022-08-14T22:29:11.347Z,2.15
2022-08-14T22:31:41.334Z,4.20
2022-08-14T22:34:11.137Z,2.38
2022-08-14T22:36:48.536Z,2.00
2022-08-14T22:39:15.955Z,3.97
2022-08-14T22:41:43.624Z,3.38
2022-08-14T22:44:28.446Z,2.88
2022-08-14T22:46:56.103Z,2.80
2022-08-14T22:50:29.373Z,2.42
2022-08-14T22:52:31.802Z,2.78
2022-08-14T22:54:58.901Z,3.28
2022-08-14T22:57:27.111Z,3.58
2022-08-14T23:00:05.710Z,4.00
2022-08-14T23:02:32.988Z,4.47
2022-08-14T23:05:03.284Z,4.20
2022-08-14T23:08:56.139Z,4.93
2022-08-14T23:10:31.850Z,3.58
2022-08-14T23:13:00.305Z,3.95
2022-08-14T23:15:29.997Z,4.22
2022-08-14T23:17:56.928Z,4.28
2022-08-14T23:20:23.461Z,4.40
2022-08-14T23:22:56.062Z,4.90
2022-08-14T23:25:59.050Z,3.90
2022-08-14T23:28:34.641Z,4.15
2022-08-14T23:31:01.168Z,5.10
2022-08-14T23:33:28.106Z,3.53
2022-08-14T23:35:59.039Z,3.28
2022-08-14T23:38:30.967Z,3.00
2022-08-14T23:40:58.441Z,3.33
2022-08-14T23:43:28.296Z,3.50
2022-08-14T23:45:57.921Z,3.47
2022-08-14T23:48:27.981Z,3.30
2022-08-14T23:50:55.136Z,3.20
2022-08-14T23:53:28.210Z,3.28
2022-08-14T23:56:13.018Z,3.03
2022-08-14T23:58:39.672Z,3.38
